createdAt,value
2017-11-26T00:01:58.097Z,5.67
2017-11-26T00:04:26.199Z,5.97
2017-11-26T00:06:54.404Z,5.30
2017-11-26T00:09:22.527Z,6.17
2017-11-26T00:11:50.721Z,7.03
2017-11-26T00:14:18.845Z,6.60
2017-11-26T00:16:46.960Z,5.80
2017-11-26T00:19:15.075Z,5.80
2017-11-26T00:21:43.204Z,5.97
2017-11-26T00:24:11.363Z,6.80
2017-11-26T00:26:40.256Z,6.50
2017-11-26T00:29:08.380Z,6.20
2017-11-26T00:31:36.510Z,7.10
2017-11-26T00:34:05.416Z,6.20
2017-11-26T00:36:38.649Z,5.87
2017-11-26T00:39:06.888Z,6.43
2017-11-26T00:41:35.008Z,5.57
2017-11-26T00:44:03.161Z,6.20
2017-11-26T00:46:32.132Z,6.80
2017-11-26T00:49:00.332Z,7.00
2017-11-26T00:51:28.474Z,7.30
2017-11-26T00:53:56.598Z,6.83
2017-11-26T00:56:24.749Z,7.20
2017-11-26T00:58:52.912Z,7.03
2017-11-26T01:01:21.059Z,7.10
2017-11-26T01:03:49.204Z,7.50
2017-11-26T01:06:17.377Z,8.20
2017-11-26T01:08:45.521Z,7.27
2017-11-26T01:11:13.661Z,8.30
2017-11-26T01:13:41.751Z,7.10
2017-11-26T01:16:09.892Z,7.00
2017-11-26T01:18:38.760Z,9.10
2017-11-26T01:21:06.936Z,7.53
2017-11-26T01:23:35.048Z,7.80
2017-11-26T01:26:03.192Z,9.77
2017-11-26T01:28:31.308Z,8.77
2017-11-26T01:30:59.683Z,8.20
2017-11-26T01:33:27.823Z,9.00
2017-11-26T01:35:55.992Z,8.50
2017-11-26T01:38:24.924Z,8.43
2017-11-26T01:40:53.115Z,8.37
2017-11-26T01:43:21.291Z,8.20
2017-11-26T01:45:49.409Z,9.20
2017-11-26T01:48:17.535Z,9.67
2017-11-26T01:50:45.653Z,9.17
2017-11-26T01:53:13.903Z,10.80
2017-11-26T01:55:42.828Z,9.70
2017-11-26T01:58:10.984Z,10.33
2017-11-26T02:00:39.059Z,9.80
2017-11-26T02:03:19.617Z,10.00
2017-11-26T02:05:47.845Z,8.30
2017-11-26T02:08:15.984Z,9.60
2017-11-26T02:10:59.383Z,10.20
2017-11-26T02:13:27.528Z,9.53
2017-11-26T02:15:55.637Z,9.60
2017-11-26T02:18:24.525Z,8.97
2017-11-26T02:20:52.692Z,10.13
2017-11-26T02:23:20.862Z,9.73
2017-11-26T02:25:59.623Z,9.23
2017-11-26T02:28:27.763Z,10.23
2017-11-26T02:30:55.899Z,9.77
2017-11-26T02:33:35.705Z,9.80
2017-11-26T02:36:20.514Z,9.63
2017-11-26T02:38:48.704Z,10.30
2017-11-26T02:41:16.837Z,9.53
2017-11-26T02:43:45.782Z,10.53
2017-11-26T02:46:13.903Z,10.13
2017-11-26T02:48:42.007Z,10.43
2017-11-26T02:51:10.150Z,10.10
2017-11-26T02:53:38.347Z,10.33
2017-11-26T02:56:06.542Z,11.10
2017-11-26T02:58:34.673Z,9.50
2017-11-26T03:01:02.842Z,10.33
2017-11-26T03:03:30.990Z,10.03
2017-11-26T03:06:11.317Z,10.80
2017-11-26T03:08:39.442Z,9.80
2017-11-26T03:11:07.574Z,9.33
2017-11-26T03:13:35.695Z,9.20
2017-11-26T03:16:03.818Z,10.43
2017-11-26T03:18:31.944Z,9.40
2017-11-26T03:21:00.067Z,9.17
2017-11-26T03:23:28.259Z,10.93
2017-11-26T03:25:56.473Z,9.87
2017-11-26T03:28:24.854Z,10.27
2017-11-26T03:30:53.847Z,9.57
2017-11-26T03:33:21.952Z,9.63
2017-11-26T03:35:50.838Z,10.13
2017-11-26T03:38:19.803Z,9.60
2017-11-26T03:40:48.014Z,10.30
2017-11-26T03:43:16.172Z,10.50
2017-11-26T03:45:44.309Z,9.10
2017-11-26T03:48:13.239Z,9.57
2017-11-26T03:50:41.423Z,8.63
2017-11-26T03:53:09.547Z,9.17
2017-11-26T03:55:37.686Z,9.80
2017-11-26T03:58:07.746Z,9.17
2017-11-26T04:00:36.212Z,10.10
2017-11-26T04:03:04.351Z,8.97
2017-11-26T04:05:32.543Z,9.27
2017-11-26T04:08:00.659Z,9.40
2017-11-26T04:10:28.815Z,10.40
2017-11-26T04:12:56.991Z,9.23
2017-11-26T04:15:25.131Z,9.30
2017-11-26T04:17:53.254Z,9.47
2017-11-26T04:20:21.410Z,9.73
2017-11-26T04:22:49.523Z,9.33
2017-11-26T04:25:17.643Z,8.53
2017-11-26T04:27:47.358Z,8.50
2017-11-26T04:30:16.312Z,8.73
2017-11-26T04:32:44.431Z,9.40
2017-11-26T04:35:12.643Z,9.10
2017-11-26T04:37:41.587Z,9.33
2017-11-26T04:40:09.803Z,9.10
2017-11-26T04:42:37.935Z,9.03
2017-11-26T04:45:06.113Z,8.70
2017-11-26T04:47:35.107Z,9.17
2017-11-26T04:50:03.697Z,8.60
2017-11-26T04:52:31.799Z,8.40
2017-11-26T04:55:00.071Z,9.40
2017-11-26T04:57:28.979Z,10.23
2017-11-26T04:59:57.257Z,7.97
2017-11-26T05:02:39.223Z,9.87
2017-11-26T05:05:07.348Z,9.67
2017-11-26T05:07:36.268Z,9.40
2017-11-26T05:10:04.394Z,9.40
2017-11-26T05:12:32.516Z,8.97
2017-11-26T05:15:00.650Z,9.43
2017-11-26T05:17:28.755Z,9.97
2017-11-26T05:19:56.904Z,7.60
2017-11-26T05:22:25.817Z,8.87
2017-11-26T05:24:53.924Z,7.13
2017-11-26T05:27:41.534Z,7.87
2017-11-26T05:30:09.732Z,8.87
2017-11-26T05:32:37.839Z,8.20
2017-11-26T05:35:05.963Z,8.40
2017-11-26T05:37:34.837Z,9.43
2017-11-26T05:40:02.938Z,7.13
2017-11-26T05:42:31.070Z,8.93
2017-11-26T05:44:59.242Z,8.53
2017-11-26T05:47:27.436Z,8.80
2017-11-26T05:49:55.720Z,9.50
2017-11-26T05:52:23.818Z,7.63
2017-11-26T05:54:52.012Z,9.10
2017-11-26T05:57:25.976Z,9.10
2017-11-26T05:59:54.149Z,7.67
2017-11-26T06:02:22.318Z,10.40
2017-11-26T06:04:50.452Z,10.60
2017-11-26T06:07:18.634Z,10.20
2017-11-26T06:09:46.746Z,9.93
2017-11-26T06:12:15.007Z,9.87
2017-11-26T06:14:43.871Z,8.40
2017-11-26T06:17:12.112Z,9.83
2017-11-26T06:19:40.199Z,9.90
2017-11-26T06:22:08.380Z,8.47
2017-11-26T06:24:37.508Z,9.47
2017-11-26T06:27:05.624Z,9.10
2017-11-26T06:29:33.818Z,8.40
2017-11-26T06:32:01.967Z,9.63
2017-11-26T06:34:30.079Z,9.10
2017-11-26T06:36:58.237Z,9.20
2017-11-26T06:39:26.343Z,8.87
2017-11-26T06:41:56.589Z,8.20
2017-11-26T06:44:24.703Z,10.77
2017-11-26T06:46:52.924Z,8.87
2017-11-26T06:49:21.075Z,9.27
2017-11-26T06:51:49.270Z,9.93
2017-11-26T06:54:18.277Z,10.17
2017-11-26T06:56:49.120Z,10.50
2017-11-26T06:59:17.915Z,11.50
2017-11-26T07:01:46.015Z,12.07
2017-11-26T07:04:14.161Z,13.47
2017-11-26T07:06:42.357Z,12.73
2017-11-26T07:09:11.389Z,11.53
2017-11-26T07:11:40.321Z,12.00
2017-11-26T07:14:13.159Z,13.40
2017-11-26T07:16:41.253Z,13.73
2017-11-26T07:19:09.509Z,13.00
2017-11-26T07:21:37.707Z,14.23
2017-11-26T07:24:05.886Z,13.20
2017-11-26T07:26:33.995Z,14.40
2017-11-26T07:29:02.879Z,15.40
2017-11-26T07:31:31.705Z,13.97
2017-11-26T07:33:59.980Z,14.70
2017-11-26T07:36:28.147Z,15.33
2017-11-26T07:38:56.355Z,15.53
2017-11-26T07:41:24.467Z,14.80
2017-11-26T07:43:52.619Z,14.17
2017-11-26T07:46:21.591Z,12.77
2017-11-26T07:48:49.715Z,13.80
2017-11-26T07:51:18.618Z,16.10
2017-11-26T07:53:46.831Z,14.30
2017-11-26T07:56:14.957Z,13.63
2017-11-26T07:58:43.138Z,16.13
2017-11-26T08:01:11.316Z,16.20
2017-11-26T08:03:40.433Z,17.50
2017-11-26T08:06:08.643Z,16.00
2017-11-26T08:11:44.067Z,17.67
2017-11-26T08:14:12.269Z,15.83
2017-11-26T08:16:40.411Z,16.60
2017-11-26T08:19:08.618Z,15.10
2017-11-26T08:21:37.523Z,16.93
2017-11-26T08:24:05.739Z,17.17
2017-11-26T08:26:38.841Z,15.93
2017-11-26T08:29:06.960Z,15.90
2017-11-26T08:31:35.094Z,15.23
2017-11-26T08:34:03.215Z,17.30
2017-11-26T08:36:31.372Z,15.37
2017-11-26T08:38:59.536Z,16.27
2017-11-26T08:41:27.696Z,15.90
2017-11-26T08:43:55.959Z,12.37
2017-11-26T08:46:36.117Z,15.60
2017-11-26T08:49:04.260Z,15.50
2017-11-26T08:51:38.373Z,14.60
2017-11-26T08:54:17.864Z,14.07
2017-11-26T08:56:45.972Z,15.27
2017-11-26T08:59:14.285Z,15.10
2017-11-26T09:01:42.501Z,14.60
2017-11-26T09:04:11.535Z,12.40
2017-11-26T09:06:39.889Z,16.30
2017-11-26T09:09:08.865Z,13.90
2017-11-26T09:11:37.196Z,14.57
2017-11-26T09:14:07.990Z,13.60
2017-11-26T09:16:36.176Z,12.00
2017-11-26T09:19:04.387Z,13.97
2017-11-26T09:21:39.193Z,12.60
2017-11-26T09:24:07.397Z,14.00
2017-11-26T09:26:35.529Z,11.93
2017-11-26T09:29:03.671Z,12.90
2017-11-26T09:31:38.918Z,13.33
2017-11-26T09:37:06.189Z,14.80
2017-11-26T09:39:34.334Z,14.20
2017-11-26T09:42:02.736Z,13.63
2017-11-26T09:44:31.026Z,15.80
2017-11-26T09:46:59.868Z,12.80
2017-11-26T09:49:27.989Z,12.90
2017-11-26T09:51:56.133Z,13.97
2017-11-26T09:54:24.496Z,13.20
2017-11-26T09:56:52.704Z,10.73
2017-11-26T09:59:20.918Z,11.90
2017-11-26T10:01:49.994Z,12.80
2017-11-26T10:04:18.112Z,13.33
2017-11-26T10:06:46.451Z,12.97
2017-11-26T10:09:14.572Z,12.10
2017-11-26T10:14:24.334Z,11.73
2017-11-26T10:16:52.646Z,12.50
2017-11-26T10:19:21.663Z,10.90
2017-11-26T10:21:56.578Z,11.80
2017-11-26T10:24:24.875Z,11.27
2017-11-26T10:26:53.052Z,10.00
2017-11-26T10:29:21.201Z,11.70
2017-11-26T10:31:50.107Z,10.77
2017-11-26T10:34:18.375Z,10.50
2017-11-26T10:36:46.526Z,11.83
2017-11-26T10:39:14.633Z,8.30
2017-11-26T10:41:42.854Z,9.23
2017-11-26T10:44:11.014Z,9.87
2017-11-26T10:46:44.176Z,9.40
2017-11-26T10:49:12.647Z,8.80
2017-11-26T10:54:47.194Z,10.13
2017-11-26T10:57:15.363Z,10.27
2017-11-26T11:02:38.200Z,9.90
2017-11-26T11:08:27.573Z,8.50
2017-11-26T11:10:56.576Z,9.47
2017-11-26T11:13:25.725Z,10.43
2017-11-26T11:16:04.322Z,9.20
2017-11-26T11:18:32.510Z,8.23
2017-11-26T11:21:00.814Z,7.87
2017-11-26T11:23:29.698Z,9.57
2017-11-26T11:25:58.671Z,8.80
2017-11-26T11:28:36.976Z,8.90
2017-11-26T11:31:05.889Z,9.20
2017-11-26T11:33:33.988Z,10.30
2017-11-26T11:36:03.384Z,9.10
2017-11-26T11:38:34.016Z,9.77
2017-11-26T11:41:02.278Z,9.07
2017-11-26T11:43:31.188Z,8.97
2017-11-26T11:45:59.966Z,8.80
2017-11-26T11:48:28.193Z,8.20
2017-11-26T11:50:56.515Z,9.27
2017-11-26T11:53:25.026Z,8.67
2017-11-26T11:55:53.163Z,9.53
2017-11-26T11:58:22.210Z,8.70
2017-11-26T12:00:53.571Z,8.77
2017-11-26T12:03:21.719Z,9.10
2017-11-26T12:05:49.922Z,8.93
2017-11-26T12:11:20.138Z,8.00
2017-11-26T12:14:06.043Z,8.40
2017-11-26T12:16:35.103Z,7.80
2017-11-26T12:19:03.316Z,6.97
2017-11-26T12:21:32.209Z,7.63
2017-11-26T12:24:00.382Z,8.10
2017-11-26T12:26:28.526Z,8.17
2017-11-26T12:28:57.541Z,8.10
2017-11-26T12:31:25.661Z,8.03
2017-11-26T12:33:54.726Z,7.70
2017-11-26T12:36:39.158Z,6.90
2017-11-26T12:39:07.608Z,8.00
2017-11-26T12:41:35.720Z,7.90
2017-11-26T12:44:04.172Z,7.40
2017-11-26T12:46:33.444Z,6.70
2017-11-26T12:49:01.560Z,7.30
2017-11-26T12:51:29.828Z,7.70
2017-11-26T12:53:58.064Z,8.07
2017-11-26T12:56:26.181Z,6.90
2017-11-26T13:01:48.115Z,7.73
2017-11-26T13:04:16.311Z,7.00
2017-11-26T13:06:44.721Z,6.30
2017-11-26T13:09:13.008Z,6.60
2017-11-26T13:11:41.136Z,6.47
2017-11-26T13:14:09.277Z,6.13
2017-11-26T13:16:37.441Z,6.13
2017-11-26T13:19:06.955Z,5.73
2017-11-26T13:21:35.100Z,5.43
2017-11-26T13:24:04.407Z,6.27
2017-11-26T13:26:33.517Z,5.57
2017-11-26T13:29:02.682Z,6.43
2017-11-26T13:31:33.275Z,5.80
2017-11-26T13:34:02.433Z,6.20
2017-11-26T13:36:30.564Z,5.20
2017-11-26T13:38:58.778Z,5.30
2017-11-26T13:41:26.932Z,3.77
2017-11-26T13:43:55.930Z,3.73
2017-11-26T13:46:24.899Z,3.50
2017-11-26T13:48:53.100Z,3.53
2017-11-26T13:51:21.591Z,3.27
2017-11-26T13:53:54.928Z,3.30
2017-11-26T13:56:24.366Z,2.53
2017-11-26T13:58:58.363Z,3.13
2017-11-26T14:01:26.508Z,2.37
2017-11-26T14:03:55.551Z,2.93
2017-11-26T14:06:24.077Z,2.93
2017-11-26T14:08:52.317Z,2.97
2017-11-26T14:11:20.945Z,2.30
2017-11-26T14:13:49.091Z,2.10
2017-11-26T14:16:17.346Z,2.37
2017-11-26T14:18:46.490Z,2.43
2017-11-26T14:21:15.383Z,2.23
2017-11-26T14:23:46.212Z,1.90
2017-11-26T14:26:15.260Z,2.27
2017-11-26T14:32:08.947Z,1.93
2017-11-26T14:34:50.195Z,1.97
2017-11-26T14:37:19.649Z,2.00
2017-11-26T14:42:47.793Z,1.50
2017-11-26T14:45:16.025Z,5.13
2017-11-26T14:47:47.321Z,2.00
2017-11-26T14:50:15.550Z,2.03
2017-11-26T14:52:45.416Z,1.97
2017-11-26T14:55:31.920Z,1.43
2017-11-26T15:01:11.045Z,1.60
2017-11-26T15:03:41.522Z,2.13
2017-11-26T15:06:10.388Z,1.87
2017-11-26T15:08:38.658Z,1.73
2017-11-26T15:11:06.964Z,1.40
2017-11-26T15:13:35.216Z,1.93
2017-11-26T15:16:04.186Z,2.03
2017-11-26T15:18:33.727Z,2.07
2017-11-26T15:21:01.996Z,1.70
2017-11-26T15:23:30.143Z,1.93
2017-11-26T15:26:01.288Z,1.70
2017-11-26T15:28:29.455Z,1.97
2017-11-26T15:30:57.824Z,1.40
2017-11-26T15:33:26.814Z,1.90
2017-11-26T15:35:58.548Z,2.57
2017-11-26T15:38:26.664Z,1.70
2017-11-26T15:40:58.818Z,2.07
2017-11-26T15:43:33.422Z,1.83
2017-11-26T15:46:01.566Z,1.87
2017-11-26T15:48:29.881Z,2.00
2017-11-26T15:50:58.027Z,1.60
2017-11-26T15:53:26.167Z,1.97
2017-11-26T15:55:54.325Z,2.00
2017-11-26T15:58:22.421Z,1.93
2017-11-26T16:01:09.032Z,1.60
2017-11-26T16:03:39.067Z,1.83
2017-11-26T16:06:07.311Z,1.60
2017-11-26T16:08:38.492Z,1.37
2017-11-26T16:13:41.810Z,1.20
2017-11-26T16:16:10.983Z,1.30
2017-11-26T16:18:40.179Z,1.50
2017-11-26T16:21:09.377Z,1.23
2017-11-26T16:23:37.500Z,1.80
2017-11-26T16:26:05.655Z,1.33
2017-11-26T16:28:33.787Z,1.57
2017-11-26T16:31:08.580Z,1.43
2017-11-26T16:33:36.779Z,1.40
2017-11-26T16:36:04.982Z,1.60
2017-11-26T16:38:33.138Z,1.60
2017-11-26T16:41:01.413Z,1.80
2017-11-26T16:43:29.535Z,1.80
2017-11-26T16:45:57.836Z,2.43
2017-11-26T16:48:26.045Z,2.53
2017-11-26T16:50:55.414Z,1.90
2017-11-26T16:53:23.942Z,2.03
2017-11-26T16:55:52.136Z,1.67
2017-11-26T16:58:20.321Z,1.50
2017-11-26T17:00:49.899Z,1.87
2017-11-26T17:03:31.773Z,1.60
2017-11-26T17:05:59.959Z,1.80
2017-11-26T17:08:29.921Z,1.57
2017-11-26T17:10:58.054Z,1.60
2017-11-26T17:13:26.292Z,1.77
2017-11-26T17:15:55.436Z,1.57
2017-11-26T17:18:23.824Z,1.63
2017-11-26T17:20:52.016Z,1.87
2017-11-26T17:23:20.203Z,1.90
2017-11-26T17:25:49.230Z,1.97
2017-11-26T17:28:18.128Z,2.27
2017-11-26T17:30:46.288Z,1.47
2017-11-26T17:33:14.488Z,2.47
2017-11-26T17:35:42.681Z,2.47
2017-11-26T17:40:43.515Z,1.83
2017-11-26T17:43:12.623Z,1.70
2017-11-26T17:45:40.758Z,1.87
2017-11-26T17:48:09.657Z,1.53
2017-11-26T17:50:38.562Z,1.40
2017-11-26T17:53:06.684Z,1.70
2017-11-26T17:55:35.748Z,1.67
2017-11-26T17:58:03.923Z,1.83
2017-11-26T18:00:32.127Z,1.87
2017-11-26T18:03:00.238Z,1.63
2017-11-26T18:05:38.484Z,1.60
2017-11-26T18:08:06.687Z,1.80
2017-11-26T18:10:34.890Z,1.77
2017-11-26T18:13:09.629Z,1.93
2017-11-26T18:15:37.853Z,2.10
2017-11-26T18:18:06.882Z,1.50
2017-11-26T18:20:35.024Z,1.80
2017-11-26T18:23:04.125Z,1.70
2017-11-26T18:25:32.255Z,1.90
2017-11-26T18:28:00.418Z,1.70
2017-11-26T18:30:28.600Z,1.63
2017-11-26T18:32:57.500Z,1.60
2017-11-26T18:35:26.423Z,1.80
2017-11-26T18:37:54.599Z,1.63
2017-11-26T18:40:22.748Z,2.30
2017-11-26T18:42:51.884Z,2.03
2017-11-26T18:45:20.798Z,2.00
2017-11-26T18:47:49.006Z,2.50
2017-11-26T18:50:17.183Z,1.70
2017-11-26T18:52:45.291Z,2.33
2017-11-26T18:55:13.487Z,2.20
2017-11-26T18:57:41.633Z,2.50
2017-11-26T19:00:09.785Z,2.13
2017-11-26T19:02:38.766Z,1.80
2017-11-26T19:05:06.887Z,2.47
2017-11-26T19:07:35.784Z,2.77
2017-11-26T19:10:03.895Z,2.63
2017-11-26T19:12:32.086Z,2.27
2017-11-26T19:15:01.023Z,2.90
2017-11-26T19:17:29.153Z,2.67
2017-11-26T19:19:58.080Z,1.93
2017-11-26T19:22:27.189Z,2.20
2017-11-26T19:24:55.520Z,2.00
2017-11-26T19:27:23.649Z,2.20
2017-11-26T19:29:51.764Z,2.10
2017-11-26T19:32:20.016Z,2.00
2017-11-26T19:34:48.131Z,1.73
2017-11-26T19:37:16.324Z,2.10
2017-11-26T19:39:44.824Z,1.80
2017-11-26T19:42:13.009Z,2.30
2017-11-26T19:44:41.126Z,2.10
2017-11-26T19:47:09.302Z,1.90
2017-11-26T19:49:39.235Z,2.20
2017-11-26T19:52:07.752Z,2.00
2017-11-26T19:54:35.976Z,2.23
2017-11-26T19:57:13.766Z,2.23
2017-11-26T19:59:42.826Z,1.90
2017-11-26T20:02:10.940Z,1.77
2017-11-26T20:04:39.076Z,1.90
2017-11-26T20:07:07.242Z,1.93
2017-11-26T20:09:35.543Z,1.80
2017-11-26T20:12:03.654Z,1.80
2017-11-26T20:14:37.007Z,2.10
2017-11-26T20:17:06.094Z,1.60
2017-11-26T20:19:34.721Z,1.70
2017-11-26T20:22:02.882Z,1.70
2017-11-26T20:24:31.822Z,2.47
2017-11-26T20:26:59.972Z,1.83
2017-11-26T20:29:30.341Z,1.93
2017-11-26T20:31:58.744Z,2.00
2017-11-26T20:34:41.106Z,1.90
2017-11-26T20:37:10.440Z,2.37
2017-11-26T20:42:56.142Z,1.90
2017-11-26T20:45:38.284Z,1.97
2017-11-26T20:57:17.517Z,1.70
2017-11-26T21:00:06.670Z,1.63
2017-11-26T21:02:41.300Z,1.73
2017-11-26T21:08:42.724Z,2.00
2017-11-26T21:11:11.057Z,1.97
2017-11-26T21:13:39.382Z,2.30
2017-11-26T21:16:07.576Z,2.20
2017-11-26T21:18:36.400Z,2.33
2017-11-26T21:21:12.639Z,2.10
2017-11-26T21:23:40.813Z,2.00
2017-11-26T21:26:09.676Z,1.87
2017-11-26T21:28:37.846Z,1.53
2017-11-26T21:31:05.983Z,2.20
2017-11-26T21:33:34.174Z,1.80
2017-11-26T21:36:12.653Z,1.90
2017-11-26T21:38:40.751Z,2.00
2017-11-26T21:41:12.105Z,2.00
2017-11-26T21:43:40.201Z,2.23
2017-11-26T21:46:08.346Z,2.00
2017-11-26T21:48:36.675Z,2.13
2017-11-26T21:51:04.829Z,1.90
2017-11-26T21:53:32.993Z,2.13
2017-11-26T21:56:01.117Z,2.00
2017-11-26T21:58:29.252Z,2.57
2017-11-26T22:01:00.731Z,2.30
2017-11-26T22:03:37.078Z,2.17
2017-11-26T22:06:05.230Z,2.17
2017-11-26T22:08:33.320Z,2.60
2017-11-26T22:11:01.433Z,2.33
2017-11-26T22:13:29.543Z,2.60
2017-11-26T22:15:57.732Z,2.20
2017-11-26T22:18:25.946Z,2.77
2017-11-26T22:20:54.054Z,2.17
2017-11-26T22:23:22.198Z,2.10
2017-11-26T22:25:50.372Z,2.80
2017-11-26T22:28:18.496Z,2.30
2017-11-26T22:30:46.686Z,2.60
2017-11-26T22:33:14.811Z,2.93
2017-11-26T22:35:42.958Z,2.50
2017-11-26T22:38:11.344Z,2.17
2017-11-26T22:40:39.446Z,2.33
2017-11-26T22:43:07.627Z,2.50
2017-11-26T22:45:35.785Z,2.13
2017-11-26T22:48:03.917Z,2.80
2017-11-26T22:50:32.046Z,2.97
2017-11-26T22:53:00.935Z,2.70
2017-11-26T22:55:29.293Z,2.33
2017-11-26T22:57:57.422Z,2.77
2017-11-26T23:00:25.649Z,2.30
2017-11-26T23:02:53.831Z,2.60
2017-11-26T23:05:21.990Z,2.33
2017-11-26T23:07:50.917Z,2.70
2017-11-26T23:10:19.101Z,2.50
2017-11-26T23:12:48.034Z,2.90
2017-11-26T23:15:16.230Z,3.00
2017-11-26T23:17:44.401Z,2.70
2017-11-26T23:20:12.546Z,2.20
2017-11-26T23:22:40.680Z,2.90
2017-11-26T23:25:08.820Z,2.67
2017-11-26T23:27:37.619Z,1.80
2017-11-26T23:30:06.523Z,2.70
2017-11-26T23:32:34.750Z,2.80
2017-11-26T23:35:02.963Z,2.80
2017-11-26T23:37:31.196Z,3.30
2017-11-26T23:39:59.335Z,3.00
2017-11-26T23:42:27.481Z,2.80
2017-11-26T23:44:55.638Z,3.10
2017-11-26T23:47:23.906Z,3.00
2017-11-26T23:49:52.020Z,3.97
2017-11-26T23:52:20.293Z,3.27
2017-11-26T23:54:48.432Z,2.87
2017-11-26T23:57:16.613Z,3.63
2017-11-26T23:59:44.778Z,2.53
